Time;durP1;ratioP1;P1;durP2;ratioP2;P2;SDS_P1;SDS_P2;PMS_P1;PMS_P2;Temp;Humidity;BMP_temperature;BMP_pressure;BME280_temperature;BME280_humidity;BME280_pressure;Samples;Min_cycle;Max_cycle;Signal;HPM_P1;HPM_P2
2023/12/05 00:01:24;;;;;;;3.13;2.07;;;-15.30;99.90;;;;;;1924581;72;27021;-87
2023/12/05 00:04:13;;;;;;;17.77;3.20;;;-15.30;99.90;;;;;;1894184;73;25489;-87
2023/12/05 00:07:02;;;;;;;5.53;2.33;;;-15.30;99.90;;;;;;1867801;75;25461;-87
2023/12/05 00:09:50;;;;;;;7.67;2.37;;;-15.40;99.90;;;;;;1908455;73;25423;-87
2023/12/05 00:12:39;;;;;;;4.47;2.07;;;-15.50;99.90;;;;;;1904082;73;25528;-87
2023/12/05 00:15:27;;;;;;;5.30;1.80;;;-15.50;99.90;;;;;;1905407;73;25324;-87
2023/12/05 00:18:16;;;;;;;3.93;1.97;;;-15.40;99.90;;;;;;1900935;73;25384;-87
2023/12/05 00:21:06;;;;;;;5.87;2.10;;;-15.30;99.90;;;;;;1912532;73;26765;-86
2023/12/05 00:23:54;;;;;;;6.33;2.37;;;-15.30;99.90;;;;;;1901544;73;25417;-87
2023/12/05 00:26:43;;;;;;;11.37;2.60;;;-15.20;99.90;;;;;;1905005;73;25349;-87
2023/12/05 00:29:32;;;;;;;5.60;2.63;;;-15.20;99.90;;;;;;1914353;73;25937;-87
2023/12/05 00:32:20;;;;;;;9.97;1.97;;;-15.20;99.90;;;;;;1903513;73;25877;-87
2023/12/05 00:35:10;;;;;;;4.53;2.43;;;-15.20;99.90;;;;;;1903393;73;25962;-87
2023/12/05 00:37:59;;;;;;;2.80;1.80;;;-15.20;99.90;;;;;;1910686;73;25456;-87
2023/12/05 00:40:48;;;;;;;4.13;2.60;;;-15.10;99.90;;;;;;1909819;73;25524;-87
2023/12/05 00:43:37;;;;;;;6.70;1.80;;;-14.90;99.90;;;;;;1910163;73;25535;-87
2023/12/05 00:46:26;;;;;;;7.87;2.63;;;-15.00;99.90;;;;;;1899629;73;25551;-87
2023/12/05 01:07:05;;;;;;;6.23;2.40;;;-14.90;99.90;;;;;;1940442;71;26934;-88
2023/12/05 01:09:55;;;;;;;7.37;2.93;;;-15.00;99.90;;;;;;1924723;72;25474;-87
2023/12/05 01:12:44;;;;;;;5.77;2.43;;;-15.10;99.90;;;;;;1935181;72;25361;-87
2023/12/05 01:15:32;;;;;;;7.17;2.10;;;-15.20;99.90;;;;;;1927476;72;26605;-87
2023/12/05 01:18:21;;;;;;;5.53;2.27;;;-15.20;99.90;;;;;;1926726;72;25976;-87
2023/12/05 01:24:00;;;;;;;12.87;2.43;;;-15.40;99.90;;;;;;1950985;72;26957;-87
2023/12/05 01:26:49;;;;;;;4.50;2.23;;;-15.40;99.90;;;;;;1938033;72;25378;-88
2023/12/05 01:29:38;;;;;;;3.00;2.00;;;-15.40;99.90;;;;;;1934301;72;25408;-87
2023/12/05 01:32:26;;;;;;;4.60;2.37;;;-15.40;99.90;;;;;;1933123;72;25365;-87
2023/12/05 01:35:16;;;;;;;3.03;1.93;;;-15.50;99.90;;;;;;1925733;72;25292;-87
2023/12/05 01:38:06;;;;;;;4.00;2.10;;;-15.60;99.90;;;;;;1935124;72;25815;-87
2023/12/05 01:40:54;;;;;;;10.10;2.23;;;-15.60;99.90;;;;;;1936117;72;25494;-87
2023/12/05 01:43:43;;;;;;;4.40;2.23;;;-15.70;99.90;;;;;;1892294;75;25398;-86
2023/12/05 01:46:34;;;;;;;6.07;2.40;;;-15.70;99.90;;;;;;1877161;74;25502;-86
2023/12/05 01:49:22;;;;;;;4.20;2.07;;;-15.70;99.90;;;;;;1883304;74;26151;-86
2023/12/05 01:52:10;;;;;;;2.90;1.57;;;-15.70;99.90;;;;;;1853748;75;25449;-87
2023/12/05 01:57:44;;;;;;;5.33;2.23;;;-15.70;99.90;;;;;;1945050;72;27008;-87
2023/12/05 02:00:33;;;;;;;9.17;2.60;;;-15.70;99.90;;;;;;1926802;73;25928;-87
2023/12/05 02:03:22;;;;;;;6.20;2.27;;;-15.70;99.90;;;;;;1880011;75;25447;-87
2023/12/05 02:06:11;;;;;;;7.47;2.23;;;-15.80;99.90;;;;;;1848788;76;26207;-87
2023/12/05 02:09:03;;;;;;;3.73;2.40;;;-15.90;99.90;;;;;;1857403;76;25982;-87
2023/12/05 02:11:53;;;;;;;7.03;2.23;;;-15.90;99.90;;;;;;1888991;75;25775;-86
2023/12/05 02:14:42;;;;;;;5.90;0.87;;;-16.00;99.90;;;;;;1890011;75;25722;-86
2023/12/05 02:17:33;;;;;;;3.93;2.27;;;-16.00;99.90;;;;;;1888639;75;26232;-87
2023/12/05 02:23:28;;;;;;;3.80;1.77;;;-16.10;99.90;;;;;;1942477;72;26990;-87
2023/12/05 02:26:21;;;;;;;2.60;1.27;;;-16.10;99.90;;;;;;1907316;73;25347;-86
2023/12/05 02:29:09;;;;;;;3.87;2.37;;;-16.00;99.90;;;;;;1913900;74;25343;-86
2023/12/05 02:31:57;;;;;;;9.47;2.67;;;-15.90;99.90;;;;;;1907024;74;26578;-86
2023/12/05 02:34:47;;;;;;;3.10;1.73;;;-16.20;99.90;;;;;;1905545;74;25594;-87
2023/12/05 02:37:40;;;;;;;5.03;1.30;;;-16.30;99.90;;;;;;1909125;74;25374;-87
2023/12/05 02:40:31;;;;;;;3.70;1.43;;;-16.30;99.90;;;;;;1905461;74;25381;-87
2023/12/05 02:43:22;;;;;;;3.87;1.27;;;-16.30;99.90;;;;;;1909045;74;26030;-87
2023/12/05 02:49:05;;;;;;;5.47;1.93;;;-16.20;99.90;;;;;;1948190;72;27621;-86
2023/12/05 02:51:55;;;;;;;4.63;1.60;;;-16.20;99.90;;;;;;1927973;73;25515;-87
2023/12/05 02:54:43;;;;;;;4.83;1.80;;;-16.10;99.90;;;;;;1923789;73;25559;-87
2023/12/05 02:57:32;;;;;;;6.27;2.37;;;-16.00;99.90;;;;;;1922829;73;25487;-87
2023/12/05 03:00:21;;;;;;;4.33;2.13;;;-16.00;99.90;;;;;;1922376;73;25544;-87
2023/12/05 03:03:12;;;;;;;6.63;2.03;;;-15.90;99.90;;;;;;1925020;73;25465;-87
2023/12/05 03:06:01;;;;;;;4.13;1.70;;;-15.90;99.90;;;;;;1928793;73;25914;-86
2023/12/05 03:08:49;;;;;;;7.37;2.50;;;-15.90;99.90;;;;;;1923528;73;25566;-87
2023/12/05 03:11:37;;;;;;;2.90;2.00;;;-15.80;99.90;;;;;;1924505;73;25630;-86
2023/12/05 03:14:27;;;;;;;6.23;2.90;;;-15.80;99.90;;;;;;1920629;73;25430;-85
2023/12/05 03:17:16;;;;;;;3.80;2.37;;;-15.90;99.90;;;;;;1923004;73;25483;-86
2023/12/05 03:20:08;;;;;;;3.07;1.90;;;-15.90;99.90;;;;;;1927445;73;26697;-85
2023/12/05 03:22:56;;;;;;;3.20;1.73;;;-16.00;99.90;;;;;;1922515;73;25314;-86
2023/12/05 03:25:45;;;;;;;6.77;2.20;;;-15.90;99.90;;;;;;1928715;73;25654;-86
2023/12/05 03:28:34;;;;;;;8.40;1.90;;;-15.90;99.90;;;;;;1936230;73;25334;-87
2023/12/05 03:31:22;;;;;;;3.23;1.97;;;-16.00;99.90;;;;;;1929731;73;25435;-87
2023/12/05 03:34:11;;;;;;;10.93;3.10;;;-16.00;99.90;;;;;;1922173;73;25553;-87
2023/12/05 03:39:39;;;;;;;11.80;2.63;;;-16.10;99.90;;;;;;1931310;72;27091;-85
2023/12/05 03:42:28;;;;;;;4.13;1.60;;;-16.20;99.90;;;;;;1895018;74;25515;-88
2023/12/05 03:45:17;;;;;;;12.83;3.20;;;-16.20;99.90;;;;;;1900689;75;25541;-87
2023/12/05 03:48:05;;;;;;;2.97;2.00;;;-16.20;99.90;;;;;;1881599;74;25421;-86
2023/12/05 03:50:54;;;;;;;4.50;1.97;;;-16.10;99.90;;;;;;1886093;75;25327;-86
2023/12/05 03:53:42;;;;;;;3.67;1.90;;;-16.10;99.90;;;;;;1884270;75;25327;-86
2023/12/05 03:56:31;;;;;;;3.00;1.20;;;-16.10;99.90;;;;;;1880913;75;26672;-86
2023/12/05 03:59:20;;;;;;;2.90;1.80;;;-16.10;99.90;;;;;;1882201;75;25389;-86
2023/12/05 04:02:08;;;;;;;8.67;2.43;;;-16.20;99.90;;;;;;1880251;75;25848;-86
2023/12/05 04:04:57;;;;;;;2.10;1.70;;;-16.30;99.90;;;;;;1844751;76;25503;-86
2023/12/05 04:07:46;;;;;;;2.87;1.70;;;-16.40;99.90;;;;;;1884744;74;25394;-86
2023/12/05 04:10:35;;;;;;;7.53;1.70;;;-16.40;99.90;;;;;;1886218;75;25480;-87
2023/12/05 04:16:11;;;;;;;2.53;2.10;;;-16.50;99.90;;;;;;1938011;72;27090;-87
2023/12/05 04:21:46;;;;;;;2.43;1.50;;;-16.40;99.90;;;;;;1948748;71;27083;-87
2023/12/05 04:24:34;;;;;;;4.83;1.97;;;-16.40;99.90;;;;;;1929766;72;26795;-86
2023/12/05 04:27:22;;;;;;;2.23;1.23;;;-16.40;99.90;;;;;;1923475;72;25543;-87
2023/12/05 04:30:12;;;;;;;4.93;1.90;;;-16.40;99.90;;;;;;1930844;72;25928;-87
2023/12/05 04:33:01;;;;;;;3.40;2.20;;;-16.40;99.90;;;;;;1924848;72;25443;-86
2023/12/05 04:35:50;;;;;;;5.17;1.73;;;-16.40;99.90;;;;;;1928856;72;25455;-87
2023/12/05 04:38:39;;;;;;;4.13;2.40;;;-16.40;99.90;;;;;;1885640;75;26185;-87
2023/12/05 04:41:33;;;;;;;8.30;2.57;;;-16.40;99.90;;;;;;1891844;75;26530;-86
2023/12/05 04:44:19;;;;;;;11.30;2.00;;;-16.40;99.90;;;;;;1888752;75;25917;-87
2023/12/05 04:47:08;;;;;;;3.83;2.17;;;-16.30;99.90;;;;;;1872742;75;26563;-87
2023/12/05 04:52:44;;;;;;;4.40;1.73;;;-16.30;99.90;;;;;;1946425;71;26934;-86
2023/12/05 04:55:34;;;;;;;4.93;1.63;;;-16.20;99.90;;;;;;1933193;72;25493;-86
2023/12/05 04:58:23;;;;;;;6.80;1.57;;;-16.40;99.90;;;;;;1930451;72;25990;-87
2023/12/05 05:01:12;;;;;;;2.83;1.60;;;-16.40;99.90;;;;;;1930344;72;25575;-86
2023/12/05 05:04:01;;;;;;;2.67;1.70;;;-16.40;99.90;;;;;;1936816;72;25384;-87
2023/12/05 05:06:49;;;;;;;3.87;1.63;;;-16.40;99.90;;;;;;1934098;72;25482;-86
2023/12/05 05:09:40;;;;;;;6.17;1.77;;;-16.30;99.90;;;;;;1926814;72;25411;-86
2023/12/05 05:12:28;;;;;;;4.43;2.03;;;-16.30;99.90;;;;;;1930303;72;25780;-86
2023/12/05 05:15:16;;;;;;;3.50;1.80;;;-16.20;99.90;;;;;;1940336;72;25361;-86
2023/12/05 05:18:06;;;;;;;4.53;1.87;;;-16.30;99.90;;;;;;1924669;72;26107;-86
2023/12/05 05:20:54;;;;;;;5.23;2.03;;;-16.30;99.90;;;;;;1925316;72;25347;-86
2023/12/05 05:23:43;;;;;;;8.43;2.23;;;-16.30;99.90;;;;;;1931888;72;25499;-87
2023/12/05 05:26:31;;;;;;;1.83;1.70;;;-16.30;99.90;;;;;;1927042;72;25478;-86
2023/12/05 05:29:20;;;;;;;10.83;2.00;;;-16.20;99.90;;;;;;1938219;72;25972;-86
2023/12/05 05:32:08;;;;;;;6.57;2.10;;;-16.10;99.90;;;;;;1931396;72;26468;-86
2023/12/05 05:34:57;;;;;;;4.10;2.03;;;-16.10;99.90;;;;;;1945046;72;25358;-86
2023/12/05 05:37:45;;;;;;;3.93;2.23;;;-16.10;99.90;;;;;;1932304;72;25368;-87
2023/12/05 05:40:34;;;;;;;6.67;2.33;;;-16.10;99.90;;;;;;1935753;72;25716;-87
2023/12/05 05:43:22;;;;;;;2.00;1.10;;;-16.00;99.90;;;;;;1926925;72;25430;-86
2023/12/05 05:57:09;;;;;;;12.77;4.27;;;-16.00;99.90;;;;;;1901346;73;26972;-86
2023/12/05 05:59:57;;;;;;;9.03;2.57;;;-15.70;99.90;;;;;;1875636;75;26038;-86
2023/12/05 06:02:46;;;;;;;4.13;2.67;;;-15.60;99.90;;;;;;1907360;74;25449;-87
2023/12/05 06:05:35;;;;;;;6.70;2.60;;;-15.60;99.90;;;;;;1907905;74;25494;-86
2023/12/05 06:08:23;;;;;;;6.63;2.37;;;-15.60;99.90;;;;;;1911102;74;25455;-86
2023/12/05 06:11:12;;;;;;;3.93;1.70;;;-15.60;99.90;;;;;;1905924;74;25395;-87
2023/12/05 06:14:03;;;;;;;3.83;2.33;;;-15.60;99.90;;;;;;1907178;74;25503;-87
2023/12/05 06:16:52;;;;;;;6.93;2.77;;;-15.50;99.90;;;;;;1902588;74;25628;-87
2023/12/05 06:19:42;;;;;;;4.73;2.03;;;-15.40;99.90;;;;;;1866729;76;25539;-87
2023/12/05 06:22:30;;;;;;;4.83;2.27;;;-15.30;99.90;;;;;;1905603;74;25545;-87
2023/12/05 06:28:08;;;;;;;3.77;2.33;;;-15.10;99.90;;;;;;1945527;72;26984;-87
2023/12/05 06:30:56;;;;;;;5.23;2.87;;;-15.10;99.90;;;;;;1932248;72;25436;-86
2023/12/05 06:33:45;;;;;;;6.80;2.77;;;-14.90;99.90;;;;;;1920418;73;25579;-85
2023/12/05 06:36:34;;;;;;;23.80;6.80;;;-14.80;99.90;;;;;;1884785;73;25409;-85
2023/12/05 06:39:22;;;;;;;12.20;4.03;;;-14.70;99.90;;;;;;1931524;72;25307;-86
2023/12/05 06:42:12;;;;;;;1.10;0.97;;;-14.70;99.90;;;;;;1938012;72;25446;-86
2023/12/05 06:45:02;;;;;;;13.83;4.57;;;-14.70;99.90;;;;;;1924710;73;25521;-86
2023/12/05 06:47:54;;;;;;;0.50;0.50;;;-14.70;99.90;;;;;;1892442;75;25379;-86
2023/12/05 06:50:45;;;;;;;7.20;2.80;;;-14.70;99.90;;;;;;1893239;74;25425;-86
2023/12/05 06:56:25;;;;;;;12.93;3.60;;;-14.50;99.90;;;;;;1948916;72;26938;-86
2023/12/05 07:01:56;;;;;;;3.53;2.40;;;-14.50;99.90;;;;;;1952048;72;27025;-87
2023/12/05 07:04:46;;;;;;;12.03;2.67;;;-14.50;99.90;;;;;;1922681;72;25455;-87
2023/12/05 07:10:28;;;;;;;6.63;2.43;;;-14.60;99.90;;;;;;1947023;72;27588;-86
2023/12/05 07:13:16;;;;;;;4.33;2.70;;;-14.70;99.90;;;;;;1927951;73;25428;-86
2023/12/05 07:16:11;;;;;;;4.07;1.97;;;-14.70;99.90;;;;;;1940578;72;25377;-86
2023/12/05 07:18:59;;;;;;;19.00;6.03;;;-14.60;99.90;;;;;;1946725;72;25354;-86
2023/12/05 07:21:48;;;;;;;16.67;3.33;;;-14.70;99.90;;;;;;1950675;73;25434;-86
2023/12/05 07:24:36;;;;;;;4.40;2.60;;;-14.80;99.90;;;;;;1949516;73;26092;-86
2023/12/05 07:27:25;;;;;;;10.20;3.17;;;-14.90;99.90;;;;;;1939132;72;25356;-86
2023/12/05 07:30:16;;;;;;;8.03;2.90;;;-14.80;99.90;;;;;;1935860;73;25907;-86
2023/12/05 07:33:05;;;;;;;4.73;2.67;;;-14.80;99.90;;;;;;1939361;73;25932;-86
2023/12/05 07:35:54;;;;;;;5.23;2.50;;;-14.70;99.90;;;;;;1932568;72;25376;-87
2023/12/05 07:38:43;;;;;;;8.63;3.63;;;-14.80;99.90;;;;;;1941062;73;25440;-85
2023/12/05 07:41:32;;;;;;;6.70;2.37;;;-14.60;99.90;;;;;;1931853;72;25839;-85
2023/12/05 07:44:20;;;;;;;3.60;1.70;;;-14.70;99.90;;;;;;1927039;73;25401;-86
2023/12/05 07:47:11;;;;;;;2.83;2.03;;;-14.60;99.90;;;;;;1912222;74;25403;-86
2023/12/05 07:49:59;;;;;;;6.40;1.90;;;-14.60;99.90;;;;;;1891713;73;25551;-86
2023/12/05 07:55:34;;;;;;;11.13;2.43;;;-14.30;99.90;;;;;;1930088;72;27073;-86
2023/12/05 07:58:23;;;;;;;9.50;2.03;;;-14.30;99.90;;;;;;1921491;73;25317;-86
2023/12/05 08:01:13;;;;;;;6.47;2.60;;;-14.30;99.90;;;;;;1901593;73;25395;-86
2023/12/05 08:04:02;;;;;;;5.47;2.40;;;-14.20;99.90;;;;;;1931757;73;25298;-86
2023/12/05 08:06:51;;;;;;;5.43;2.30;;;-14.00;99.90;;;;;;1907051;73;25423;-86
2023/12/05 08:09:40;;;;;;;0.67;0.67;;;-13.90;99.90;;;;;;1906777;73;25401;-86
2023/12/05 08:15:11;;;;;;;1.93;1.40;;;-13.80;99.90;;;;;;1942991;72;27412;-86
2023/12/05 08:18:00;;;;;;;2.87;1.90;;;-13.80;99.90;;;;;;1950401;72;25495;-86
2023/12/05 08:20:49;;;;;;;1.67;1.23;;;-13.70;99.90;;;;;;1934717;73;25900;-86
2023/12/05 08:23:38;;;;;;;3.87;1.70;;;-13.60;99.90;;;;;;1920357;73;25906;-86
2023/12/05 08:26:28;;;;;;;1.90;1.60;;;-13.50;99.90;;;;;;1932378;72;25466;-86
2023/12/05 08:29:16;;;;;;;7.33;1.40;;;-13.40;99.90;;;;;;1930339;73;26054;-86
2023/12/05 08:34:48;;;;;;;1.20;1.07;;;-13.50;99.90;;;;;;1930519;72;28194;-86
2023/12/05 08:37:37;;;;;;;15.20;4.67;;;-13.50;99.90;;;;;;1873281;75;25486;-86
2023/12/05 08:40:27;;;;;;;27.50;9.53;;;-13.40;99.90;;;;;;1834873;76;25477;-86
2023/12/05 08:43:16;;;;;;;4.37;3.03;;;-13.30;99.90;;;;;;1898865;75;25470;-86
2023/12/05 08:46:05;;;;;;;6.03;1.57;;;-13.10;99.90;;;;;;1893859;75;25572;-86
2023/12/05 08:48:53;;;;;;;4.07;2.17;;;-12.90;99.90;;;;;;1897981;75;25466;-86
2023/12/05 08:51:43;;;;;;;8.63;3.90;;;-13.00;99.90;;;;;;1886373;75;25387;-87
2023/12/05 08:54:31;;;;;;;12.50;3.97;;;-12.80;99.90;;;;;;1900574;75;25493;-87
2023/12/05 08:57:20;;;;;;;1.03;1.00;;;-12.80;99.90;;;;;;1893163;75;25419;-86
2023/12/05 09:00:10;;;;;;;8.23;1.73;;;-12.90;99.90;;;;;;1898445;75;25426;-84
2023/12/05 09:07:23;;;;;;;3.87;1.63;;;-12.80;99.90;;;;;;1991678;71;26993;-86
2023/12/05 09:10:11;;;;;;;5.27;2.87;;;-12.60;99.90;;;;;;2019310;70;25356;-85
2023/12/05 09:12:59;;;;;;;4.07;1.20;;;-12.60;99.90;;;;;;2016353;69;25442;-85
2023/12/05 09:15:48;;;;;;;2.67;1.27;;;-12.80;99.90;;;;;;2000375;70;25868;-85
2023/12/05 09:18:37;;;;;;;2.47;1.70;;;-12.70;99.90;;;;;;2014836;69;25336;-85
2023/12/05 09:21:26;;;;;;;1.00;0.90;;;-12.70;99.90;;;;;;2005311;69;25783;-85
2023/12/05 09:24:17;;;;;;;7.57;1.50;;;-12.80;99.90;;;;;;2010644;70;25424;-85
2023/12/05 09:27:06;;;;;;;1.23;1.23;;;-12.70;99.90;;;;;;2016946;70;25434;-85
2023/12/05 09:29:55;;;;;;;1.63;1.37;;;-12.70;99.90;;;;;;2012635;70;25277;-85
2023/12/05 09:32:44;;;;;;;4.77;1.47;;;-12.70;99.90;;;;;;2014220;70;25520;-85
2023/12/05 09:35:33;;;;;;;0.80;0.80;;;-12.40;99.90;;;;;;2012128;70;25393;-85
2023/12/05 09:38:22;;;;;;;2.57;1.03;;;-12.50;99.90;;;;;;2000110;70;25371;-85
2023/12/05 09:43:59;;;;;;;4.10;2.17;;;-12.40;99.90;;;;;;1953486;72;26938;-86
2023/12/05 10:03:37;;;;;;;5.93;1.90;;;-11.50;99.90;;;;;;1941314;72;27639;-86
2023/12/05 10:06:27;;;;;;;2.20;1.17;;;-11.50;99.90;;;;;;1904269;74;25545;-86
2023/12/05 10:11:59;;;;;;;5.30;1.50;;;-11.60;99.90;;;;;;1932141;72;26998;-87
2023/12/05 10:14:47;;;;;;;0.83;0.80;;;-11.50;99.90;;;;;;1920462;73;25905;-86
2023/12/05 10:17:35;;;;;;;1.97;0.93;;;-11.70;99.90;;;;;;1921386;73;25503;-86
2023/12/05 10:23:16;;;;;;;69.27;13.40;;;-11.70;99.90;;;;;;1941689;72;27041;-86
2023/12/05 10:26:07;;;;;;;1.17;1.07;;;-11.70;99.90;;;;;;1917160;73;25497;-86
2023/12/05 10:31:43;;;;;;;10.33;3.20;;;-11.40;99.90;;;;;;1957771;72;27056;-86
2023/12/05 10:34:32;;;;;;;3.50;1.83;;;-11.30;99.90;;;;;;1924412;73;25511;-87
2023/12/05 10:37:23;;;;;;;33.03;9.23;;;-11.30;99.90;;;;;;1943289;73;25416;-87
2023/12/05 10:40:14;;;;;;;2.60;1.47;;;-11.30;99.90;;;;;;1942880;73;25993;-86
2023/12/05 10:43:03;;;;;;;6.97;2.47;;;-11.30;99.90;;;;;;1924579;73;26050;-87
2023/12/05 10:45:52;;;;;;;4.60;1.97;;;-11.30;99.90;;;;;;1938073;73;25576;-87
2023/12/05 10:48:41;;;;;;;5.87;2.27;;;-11.30;99.90;;;;;;1936699;73;26439;-85
2023/12/05 10:51:31;;;;;;;3.87;1.93;;;-11.20;99.90;;;;;;1949682;73;25523;-88
2023/12/05 10:54:19;;;;;;;4.10;1.70;;;-11.00;99.90;;;;;;1947260;73;26363;-88
2023/12/05 10:57:09;;;;;;;16.07;3.60;;;-11.20;99.90;;;;;;1943431;73;25569;-87
2023/12/05 10:59:59;;;;;;;3.80;1.53;;;-11.10;99.90;;;;;;1937315;73;25817;-86
2023/12/05 11:05:29;;;;;;;2.47;1.50;;;-11.00;99.90;;;;;;1923851;72;27202;-86
2023/12/05 11:10:59;;;;;;;2.70;1.70;;;-10.80;99.90;;;;;;1949922;72;27013;-87
2023/12/05 11:13:49;;;;;;;0.93;0.70;;;-10.80;99.90;;;;;;1897590;75;25616;-87
2023/12/05 11:16:42;;;;;;;1.70;1.60;;;-10.90;99.90;;;;;;1913364;75;26627;-87
2023/12/05 11:19:34;;;;;;;4.57;1.07;;;-11.00;99.90;;;;;;1895182;75;25579;-87
2023/12/05 11:22:26;;;;;;;1.20;0.67;;;-11.00;99.90;;;;;;1903186;75;25939;-86
2023/12/05 11:25:25;;;;;;;1.20;1.13;;;-10.90;99.90;;;;;;1894059;75;25992;-87
2023/12/05 11:28:20;;;;;;;3.73;1.67;;;-11.00;99.90;;;;;;1907436;75;25576;-87
2023/12/05 11:31:17;;;;;;;6.90;1.70;;;-11.10;99.90;;;;;;1906743;75;25609;-87
2023/12/05 11:34:30;;;;;;;0.30;0.30;;;-10.70;99.90;;;;;;1907955;75;25458;-87
2023/12/05 11:40:20;;;;;;;1.67;1.20;;;-10.50;99.90;;;;;;1945194;72;27472;-87
2023/12/05 11:43:10;;;;;;;1.33;0.57;;;-10.60;99.90;;;;;;1948843;73;25599;-87
2023/12/05 11:48:50;;;;;;;5.17;1.90;;;-10.50;99.90;;;;;;1942275;72;27466;-87
2023/12/05 11:51:39;;;;;;;0.83;0.83;;;-10.40;99.90;;;;;;1929227;72;26261;-87
2023/12/05 11:54:33;;;;;;;24.30;4.63;;;-10.20;99.90;;;;;;1952607;72;26119;-87
2023/12/05 11:57:23;;;;;;;7.10;2.63;;;-10.10;99.90;;;;;;1922412;72;25586;-87
2023/12/05 12:00:13;;;;;;;2.23;1.67;;;-10.30;99.90;;;;;;1948342;72;26143;-87
2023/12/05 12:03:07;;;;;;;14.40;3.53;;;-10.50;99.90;;;;;;1919883;72;25547;-87
2023/12/05 12:08:45;;;;;;;23.83;5.00;;;-10.20;99.90;;;;;;1922686;72;27508;-87
2023/12/05 12:14:53;;;;;;;2.30;1.70;;;-10.20;99.90;;;;;;1981281;71;26874;-87
2023/12/05 12:17:48;;;;;;;2.53;1.40;;;-10.10;99.90;;;;;;2009432;69;25706;-87
2023/12/05 12:20:37;;;;;;;6.37;2.60;;;-9.90;99.90;;;;;;2014433;70;26138;-87
2023/12/05 12:23:26;;;;;;;4.13;2.17;;;-10.00;99.90;;;;;;2009792;70;25642;-91
2023/12/05 12:26:15;;;;;;;4.10;1.87;;;-9.80;99.90;;;;;;2039163;69;25481;-86
2023/12/05 12:29:07;;;;;;;2.57;0.97;;;-10.00;99.90;;;;;;2018241;69;25631;-86
2023/12/05 12:32:07;;;;;;;2.53;1.40;;;-10.30;99.90;;;;;;1992758;70;26251;-86
2023/12/05 12:34:55;;;;;;;2.53;1.50;;;-10.30;99.90;;;;;;2023325;69;25620;-87
2023/12/05 12:40:36;;;;;;;3.00;1.40;;;-10.00;99.90;;;;;;1940599;72;27536;-87
2023/12/05 12:43:24;;;;;;;1.90;1.40;;;-9.90;99.90;;;;;;1941322;73;25705;-87
2023/12/05 12:46:13;;;;;;;2.13;1.47;;;-10.00;99.90;;;;;;1894049;73;26004;-87
2023/12/05 12:49:03;;;;;;;3.40;1.40;;;-9.90;99.90;;;;;;1885795;75;25596;-87
2023/12/05 12:51:57;;;;;;;3.57;1.73;;;-9.80;99.90;;;;;;1878107;75;25603;-87
2023/12/05 12:54:46;;;;;;;3.50;1.77;;;-9.70;99.90;;;;;;1898345;75;25701;-87
2023/12/05 12:57:36;;;;;;;2.17;1.53;;;-9.60;99.90;;;;;;1893686;75;26214;-87
2023/12/05 13:03:16;;;;;;;1.20;0.90;;;-9.80;99.90;;;;;;1944232;72;26912;-87
2023/12/05 13:06:06;;;;;;;1.00;1.00;;;-9.90;99.90;;;;;;1929999;72;25736;-87
2023/12/05 13:11:43;;;;;;;4.20;1.57;;;-9.90;99.90;;;;;;1910362;74;27190;-87
2023/12/05 13:14:32;;;;;;;4.00;1.37;;;-10.10;99.90;;;;;;1894622;74;25601;-87
2023/12/05 13:17:21;;;;;;;4.77;1.90;;;-10.00;99.90;;;;;;1896226;74;25631;-87
2023/12/05 13:23:02;;;;;;;4.30;1.63;;;-9.80;99.90;;;;;;1956592;71;27008;-87
2023/12/05 13:25:52;;;;;;;2.93;1.77;;;-9.90;99.90;;;;;;1940076;72;25661;-88
2023/12/05 13:28:41;;;;;;;2.80;1.83;;;-9.80;99.90;;;;;;1920842;72;26257;-88
2023/12/05 13:31:29;;;;;;;7.67;2.83;;;-9.70;99.90;;;;;;1923192;73;25632;-88
2023/12/05 13:34:18;;;;;;;1.17;1.03;;;-9.70;99.90;;;;;;1933627;72;26290;-88
2023/12/05 13:37:07;;;;;;;8.13;2.53;;;-9.70;99.90;;;;;;1868431;75;25696;-88
2023/12/05 13:39:56;;;;;;;12.50;3.97;;;-9.70;99.90;;;;;;1883802;75;25679;-88
2023/12/05 13:42:44;;;;;;;2.93;1.43;;;-9.60;99.90;;;;;;1859390;76;26305;-88
2023/12/05 13:46:16;;;;;;;18.20;7.00;;;-9.60;99.90;;;;;;1884444;75;25831;-88
2023/12/05 13:49:05;;;;;;;1.87;1.20;;;-9.80;99.90;;;;;;1873575;75;25748;-88
2023/12/05 13:54:49;;;;;;;19.80;4.60;;;-9.80;99.90;;;;;;1951577;72;26962;-87
2023/12/05 13:57:38;;;;;;;36.87;9.80;;;-10.00;99.90;;;;;;1931789;73;25546;-88
2023/12/05 14:00:28;;;;;;;15.20;6.87;;;-10.00;99.90;;;;;;1965888;72;26059;-87
2023/12/05 14:03:16;;;;;;;4.97;1.17;;;-10.00;99.90;;;;;;1939382;72;25637;-87
2023/12/05 14:06:07;;;;;;;8.50;2.83;;;-10.10;99.90;;;;;;1897847;75;26945;-86
2023/12/05 14:11:44;;;;;;;8.10;3.03;;;-10.00;99.90;;;;;;1944104;72;27581;-87
2023/12/05 14:14:32;;;;;;;7.07;2.47;;;-9.90;99.90;;;;;;1899616;73;25685;-87
2023/12/05 14:17:21;;;;;;;4.57;2.30;;;-9.80;99.90;;;;;;1894817;75;25803;-87
2023/12/05 14:20:11;;;;;;;7.47;2.43;;;-9.80;99.90;;;;;;1911455;75;26160;-88
2023/12/05 14:22:59;;;;;;;5.43;2.73;;;-9.70;99.90;;;;;;1885345;75;26170;-88
2023/12/05 14:25:48;;;;;;;3.87;2.03;;;-9.60;99.90;;;;;;1890762;73;25688;-88
2023/12/05 14:28:37;;;;;;;6.60;2.23;;;-9.60;99.90;;;;;;1898346;75;25780;-88
2023/12/05 14:31:25;;;;;;;1.43;0.60;;;-9.70;99.90;;;;;;1891169;73;25655;-87
2023/12/05 14:34:14;;;;;;;4.97;1.77;;;-9.60;99.90;;;;;;1883853;75;25678;-89
2023/12/05 14:37:04;;;;;;;8.93;2.93;;;-9.60;99.90;;;;;;1919278;73;25654;-88
2023/12/05 14:39:53;;;;;;;9.27;3.07;;;-9.70;99.90;;;;;;1884995;75;25678;-88
2023/12/05 14:42:41;;;;;;;4.50;1.77;;;-9.60;99.90;;;;;;1909994;73;25724;-88
2023/12/05 14:45:30;;;;;;;42.00;8.30;;;-9.60;99.90;;;;;;1890853;75;26242;-88
2023/12/05 14:48:19;;;;;;;176.20;35.70;;;-9.60;99.90;;;;;;1868206;76;25631;-88
2023/12/05 14:51:09;;;;;;;122.97;24.87;;;-9.60;99.90;;;;;;1874475;75;26048;-88
2023/12/05 14:56:45;;;;;;;6.17;2.97;;;-9.50;99.90;;;;;;1952329;72;26989;-88
2023/12/05 14:59:35;;;;;;;3.10;2.10;;;-9.60;99.90;;;;;;1925049;73;25646;-88
2023/12/05 15:02:24;;;;;;;11.30;4.60;;;-9.70;99.90;;;;;;1897882;75;25726;-87
2023/12/05 15:05:13;;;;;;;9.97;4.87;;;-9.50;99.90;;;;;;1899037;75;26113;-87
2023/12/05 15:08:02;;;;;;;12.43;5.17;;;-9.70;99.90;;;;;;1937883;73;25723;-87
2023/12/05 15:10:50;;;;;;;12.53;2.47;;;-9.50;99.90;;;;;;1946803;73;25825;-89
2023/12/05 15:13:39;;;;;;;6.80;2.50;;;-9.50;99.90;;;;;;1940255;73;25943;-87
2023/12/05 15:16:28;;;;;;;1.67;1.37;;;-9.50;99.90;;;;;;1940745;73;25882;-87
2023/12/05 15:19:17;;;;;;;5.50;2.67;;;-9.60;99.90;;;;;;1925818;73;26267;-87
2023/12/05 15:22:06;;;;;;;5.03;2.57;;;-9.60;99.90;;;;;;1941327;73;25675;-87
2023/12/05 15:24:54;;;;;;;7.37;2.40;;;-9.40;99.90;;;;;;1928168;73;26297;-87
2023/12/05 15:27:43;;;;;;;6.07;2.57;;;-9.40;99.90;;;;;;1928051;73;25721;-87
2023/12/05 15:30:32;;;;;;;6.13;1.47;;;-9.30;99.90;;;;;;1940730;73;25649;-87
2023/12/05 15:36:22;;;;;;;11.53;2.00;;;-9.40;99.90;;;;;;1954255;72;27577;-87
2023/12/05 15:39:15;;;;;;;3.50;1.40;;;-9.40;99.90;;;;;;1941859;73;25789;-88
2023/12/05 15:42:04;;;;;;;8.53;2.73;;;-9.30;99.90;;;;;;1939272;73;25617;-87
2023/12/05 15:48:10;;;;;;;5.53;2.27;;;-9.30;99.90;;;;;;2012960;69;26427;-87
2023/12/05 15:51:01;;;;;;;10.23;2.57;;;-9.20;99.90;;;;;;1987147;70;26110;-88
2023/12/05 15:53:50;;;;;;;5.40;2.33;;;-9.20;99.90;;;;;;1984133;70;25770;-87
2023/12/05 15:56:39;;;;;;;6.10;2.93;;;-9.20;99.90;;;;;;2003534;70;25958;-87
2023/12/05 15:59:27;;;;;;;6.40;2.40;;;-9.40;99.90;;;;;;1992621;70;25713;-87
2023/12/05 16:02:17;;;;;;;12.53;4.17;;;-9.30;99.90;;;;;;2006968;71;25725;-88
2023/12/05 16:05:07;;;;;;;1.10;1.00;;;-9.20;99.90;;;;;;1988250;70;25682;-87
2023/12/05 16:07:58;;;;;;;5.93;2.90;;;-9.30;99.90;;;;;;1997846;71;25750;-87
2023/12/05 16:10:47;;;;;;;5.27;2.73;;;-9.40;99.90;;;;;;1998840;71;25881;-87
2023/12/05 16:13:38;;;;;;;4.43;2.30;;;-9.40;99.90;;;;;;1992871;70;25739;-87
2023/12/05 16:16:26;;;;;;;2.17;1.97;;;-9.40;99.90;;;;;;1971548;70;25703;-87
2023/12/05 16:19:14;;;;;;;3.37;1.97;;;-9.30;99.90;;;;;;1996020;71;25899;-87
2023/12/05 16:22:03;;;;;;;4.40;2.53;;;-9.30;99.90;;;;;;1988996;71;25697;-87
2023/12/05 16:24:52;;;;;;;2.63;1.53;;;-9.30;99.90;;;;;;1990314;70;25709;-86
2023/12/05 16:27:42;;;;;;;8.93;2.47;;;-9.30;99.90;;;;;;2018051;70;25894;-88
2023/12/05 16:33:22;;;;;;;2.47;1.37;;;-9.30;99.90;;;;;;1941462;72;27606;-87
2023/12/05 16:36:13;;;;;;;5.20;2.77;;;-9.40;99.90;;;;;;1929579;73;26186;-87
2023/12/05 16:39:01;;;;;;;12.37;4.37;;;-9.50;99.90;;;;;;1915128;73;26338;-88
2023/12/05 16:41:50;;;;;;;5.00;2.60;;;-9.30;99.90;;;;;;1921261;74;26251;-87
2023/12/05 17:01:43;;;;;;;8.50;3.53;;;-9.20;99.90;;;;;;1948685;72;27173;-87
2023/12/05 17:07:17;;;;;;;15.33;5.10;;;-9.10;99.90;;;;;;1941813;72;27084;-87
2023/12/05 17:10:08;;;;;;;8.43;3.80;;;-8.80;99.90;;;;;;1890610;75;25982;-87
2023/12/05 17:12:57;;;;;;;4.83;1.67;;;-8.90;99.90;;;;;;1921576;73;26390;-88
2023/12/05 17:15:45;;;;;;;7.13;3.43;;;-8.90;99.90;;;;;;1922154;73;25957;-87
2023/12/05 17:21:13;;;;;;;11.17;3.10;;;-8.90;99.90;;;;;;1948698;72;27973;-87
2023/12/05 17:24:04;;;;;;;2.60;1.60;;;-9.00;99.90;;;;;;1898455;74;25846;-87